sensor_id;sensor_type;location;lat;lon;timestamp;pressure;altitude;pressure_sealevel;temperature;humidity
23363;BME280;11853;48.080;11.960;2022-09-30T00:02:22;93879.50;;;9.71;100.00
23363;BME280;11853;48.080;11.960;2022-09-30T00:04:51;93875.03;;;9.72;100.00
23363;BME280;11853;48.080;11.960;2022-09-30T00:07:17;93873.72;;;9.67;100.00
23363;BME280;11853;48.080;11.960;2022-09-30T00:09:42;93878.03;;;9.68;100.00
23363;BME280;11853;48.080;11.960;2022-09-30T00:12:08;93882.19;;;9.63;100.00
23363;BME280;11853;48.080;11.960;2022-09-30T00:14:34;93881.03;;;9.57;100.00
23363;BME280;11853;48.080;11.960;2022-09-30T00:17:00;93880.22;;;9.57;100.00
23363;BME280;11853;48.080;11.960;2022-09-30T00:19:26;93882.03;;;9.56;100.00
23363;BME280;11853;48.080;11.960;2022-09-30T00:21:52;93880.25;;;9.48;100.00
23363;BME280;11853;48.080;11.960;2022-09-30T00:24:18;93888.34;;;9.47;100.00
23363;BME280;11853;48.080;11.960;2022-09-30T00:26:44;93890.69;;;9.50;100.00
23363;BME280;11853;48.080;11.960;2022-09-30T00:29:09;93890.34;;;9.45;100.00
23363;BME280;11853;48.080;11.960;2022-09-30T00:31:35;93886.22;;;9.42;100.00
23363;BME280;11853;48.080;11.960;2022-09-30T00:34:02;93889.19;;;9.47;100.00
23363;BME280;11853;48.080;11.960;2022-09-30T00:36:46;93892.97;;;9.53;100.00
23363;BME280;11853;48.080;11.960;2022-09-30T00:39:15;93897.94;;;9.56;100.00
23363;BME280;11853;48.080;11.960;2022-09-30T00:41:44;93904.88;;;9.57;100.00
23363;BME280;11853;48.080;11.960;2022-09-30T00:44:43;93907.19;;;9.60;100.00
23363;BME280;11853;48.080;11.960;2022-09-30T00:47:34;93900.88;;;9.61;100.00
23363;BME280;11853;48.080;11.960;2022-09-30T00:50:36;93905.34;;;9.61;100.00
23363;BME280;11853;48.080;11.960;2022-09-30T00:53:19;93904.19;;;9.63;100.00
23363;BME280;11853;48.080;11.960;2022-09-30T00:55:57;93904.53;;;9.60;100.00
23363;BME280;11853;48.080;11.960;2022-09-30T00:58:38;93904.88;;;9.57;100.00
23363;BME280;11853;48.080;11.960;2022-09-30T01:01:05;93908.88;;;9.53;100.00
23363;BME280;11853;48.080;11.960;2022-09-30T01:03:38;93909.22;;;9.50;100.00
23363;BME280;11853;48.080;11.960;2022-09-30T01:06:33;93907.72;;;9.47;100.00
23363;BME280;11853;48.080;11.960;2022-09-30T01:08:59;93910.88;;;9.43;100.00
23363;BME280;11853;48.080;11.960;2022-09-30T01:11:26;93907.22;;;9.44;100.00
23363;BME280;11853;48.080;11.960;2022-09-30T01:13:55;93908.22;;;9.43;100.00
23363;BME280;11853;48.080;11.960;2022-09-30T01:16:38;93903.59;;;9.45;100.00
23363;BME280;11853;48.080;11.960;2022-09-30T01:21:55;93904.91;;;9.41;100.00
23363;BME280;11853;48.080;11.960;2022-09-30T01:30:14;93909.53;;;9.47;100.00
23363;BME280;11853;48.080;11.960;2022-09-30T01:33:06;93910.84;;;9.51;100.00
23363;BME280;11853;48.080;11.960;2022-09-30T01:41:41;93918.28;;;9.56;100.00
23363;BME280;11853;48.080;11.960;2022-09-30T01:44:16;93913.97;;;9.55;100.00
23363;BME280;11853;48.080;11.960;2022-09-30T01:54:38;93924.41;;;9.56;100.00
23363;BME280;11853;48.080;11.960;2022-09-30T01:57:44;93936.50;;;9.59;100.00
23363;BME280;11853;48.080;11.960;2022-09-30T02:00:11;93930.34;;;9.58;100.00
23363;BME280;11853;48.080;11.960;2022-09-30T02:02:46;93932.03;;;9.51;100.00
23363;BME280;11853;48.080;11.960;2022-09-30T02:05:35;93923.09;;;9.52;100.00
23363;BME280;11853;48.080;11.960;2022-09-30T02:08:07;93919.81;;;9.50;100.00
23363;BME280;11853;48.080;11.960;2022-09-30T02:10:46;93930.03;;;9.53;100.00
23363;BME280;11853;48.080;11.960;2022-09-30T02:16:12;93930.53;;;9.57;100.00
23363;BME280;11853;48.080;11.960;2022-09-30T02:18:41;93936.31;;;9.60;100.00
23363;BME280;11853;48.080;11.960;2022-09-30T02:21:10;93937.78;;;9.63;100.00
23363;BME280;11853;48.080;11.960;2022-09-30T02:23:41;93941.25;;;9.63;100.00
23363;BME280;11853;48.080;11.960;2022-09-30T02:26:20;93943.75;;;9.65;100.00
23363;BME280;11853;48.080;11.960;2022-09-30T02:28:59;93951.50;;;9.66;100.00
23363;BME280;11853;48.080;11.960;2022-09-30T02:31:36;93950.53;;;9.67;100.00
23363;BME280;11853;48.080;11.960;2022-09-30T02:34:11;93947.88;;;9.67;100.00
23363;BME280;11853;48.080;11.960;2022-09-30T02:36:41;93947.03;;;9.67;100.00
23363;BME280;11853;48.080;11.960;2022-09-30T02:39:13;93937.28;;;9.67;100.00
23363;BME280;11853;48.080;11.960;2022-09-30T02:41:47;93925.03;;;9.66;100.00
23363;BME280;11853;48.080;11.960;2022-09-30T02:44:14;93938.13;;;9.68;100.00
23363;BME280;11853;48.080;11.960;2022-09-30T02:46:48;93946.88;;;9.68;100.00
23363;BME280;11853;48.080;11.960;2022-09-30T02:49:35;93944.38;;;9.67;100.00
23363;BME280;11853;48.080;11.960;2022-09-30T02:52:14;93947.22;;;9.65;100.00
23363;BME280;11853;48.080;11.960;2022-09-30T03:00:21;93949.03;;;9.65;100.00
23363;BME280;11853;48.080;11.960;2022-09-30T03:02:50;93953.53;;;9.64;100.00
23363;BME280;11853;48.080;11.960;2022-09-30T03:05:18;93949.72;;;9.59;100.00
23363;BME280;11853;48.080;11.960;2022-09-30T03:07:44;93958.50;;;9.59;100.00
23363;BME280;11853;48.080;11.960;2022-09-30T03:10:15;93957.66;;;9.59;100.00
23363;BME280;11853;48.080;11.960;2022-09-30T03:29:44;93971.75;;;9.51;100.00
23363;BME280;11853;48.080;11.960;2022-09-30T03:42:53;93981.66;;;9.41;100.00
23363;BME280;11853;48.080;11.960;2022-09-30T03:45:36;93983.97;;;9.44;100.00
23363;BME280;11853;48.080;11.960;2022-09-30T03:48:05;93994.56;;;9.44;100.00
23363;BME280;11853;48.080;11.960;2022-09-30T03:50:34;93992.59;;;9.46;100.00
23363;BME280;11853;48.080;11.960;2022-09-30T03:53:02;93996.72;;;9.48;100.00
23363;BME280;11853;48.080;11.960;2022-09-30T03:55:29;93996.25;;;9.53;100.00
23363;BME280;11853;48.080;11.960;2022-09-30T03:57:57;93995.22;;;9.54;100.00
23363;BME280;11853;48.080;11.960;2022-09-30T04:00:23;94003.03;;;9.56;100.00
23363;BME280;11853;48.080;11.960;2022-09-30T04:02:50;94000.03;;;9.59;100.00
23363;BME280;11853;48.080;11.960;2022-09-30T04:05:15;94002.69;;;9.59;100.00
23363;BME280;11853;48.080;11.960;2022-09-30T04:07:41;94003.50;;;9.59;100.00
23363;BME280;11853;48.080;11.960;2022-09-30T04:10:07;94006.31;;;9.58;100.00
23363;BME280;11853;48.080;11.960;2022-09-30T04:12:33;94001.69;;;9.52;100.00
23363;BME280;11853;48.080;11.960;2022-09-30T04:14:59;94000.19;;;9.49;100.00
23363;BME280;11853;48.080;11.960;2022-09-30T04:17:25;94006.50;;;9.48;100.00
23363;BME280;11853;48.080;11.960;2022-09-30T04:19:50;94013.44;;;9.49;100.00
23363;BME280;11853;48.080;11.960;2022-09-30T04:22:19;94015.75;;;9.52;100.00
23363;BME280;11853;48.080;11.960;2022-09-30T04:24:45;94017.41;;;9.53;100.00
23363;BME280;11853;48.080;11.960;2022-09-30T04:27:11;94017.56;;;9.52;100.00
23363;BME280;11853;48.080;11.960;2022-09-30T04:29:37;94021.72;;;9.54;100.00
23363;BME280;11853;48.080;11.960;2022-09-30T04:32:05;94019.22;;;9.53;100.00
23363;BME280;11853;48.080;11.960;2022-09-30T04:34:31;94016.41;;;9.54;100.00
23363;BME280;11853;48.080;11.960;2022-09-30T04:36:56;94023.34;;;9.55;100.00
23363;BME280;11853;48.080;11.960;2022-09-30T04:39:22;94022.38;;;9.56;100.00
23363;BME280;11853;48.080;11.960;2022-09-30T04:41:48;94022.38;;;9.56;100.00
23363;BME280;11853;48.080;11.960;2022-09-30T04:44:14;94029.31;;;9.57;100.00
23363;BME280;11853;48.080;11.960;2022-09-30T04:46:40;94030.31;;;9.56;100.00
23363;BME280;11853;48.080;11.960;2022-09-30T04:49:07;94038.09;;;9.58;100.00
23363;BME280;11853;48.080;11.960;2022-09-30T04:51:33;94042.22;;;9.44;100.00
23363;BME280;11853;48.080;11.960;2022-09-30T04:54:00;94032.81;;;9.41;100.00
23363;BME280;11853;48.080;11.960;2022-09-30T04:56:27;94037.09;;;9.42;100.00
23363;BME280;11853;48.080;11.960;2022-09-30T04:58:52;94051.84;;;9.45;100.00
23363;BME280;11853;48.080;11.960;2022-09-30T05:01:19;94057.47;;;9.50;100.00
23363;BME280;11853;48.080;11.960;2022-09-30T05:03:46;94054.47;;;9.45;100.00
23363;BME280;11853;48.080;11.960;2022-09-30T05:06:12;94060.75;;;9.44;100.00
23363;BME280;11853;48.080;11.960;2022-09-30T05:08:41;94056.31;;;9.44;100.00
23363;BME280;11853;48.080;11.960;2022-09-30T05:11:15;94063.06;;;9.47;100.00
23363;BME280;11853;48.080;11.960;2022-09-30T05:13:42;94061.75;;;9.43;100.00
23363;BME280;11853;48.080;11.960;2022-09-30T05:16:09;94056.78;;;9.40;100.00
23363;BME280;11853;48.080;11.960;2022-09-30T05:18:36;94059.28;;;9.41;100.00
23363;BME280;11853;48.080;11.960;2022-09-30T05:21:04;94060.94;;;9.42;100.00
23363;BME280;11853;48.080;11.960;2022-09-30T05:23:31;94069.22;;;9.47;100.00
23363;BME280;11853;48.080;11.960;2022-09-30T05:25:57;94071.69;;;9.49;100.00
23363;BME280;11853;48.080;11.960;2022-09-30T05:28:23;94073.66;;;9.47;100.00
23363;BME280;11853;48.080;11.960;2022-09-30T05:31:03;94068.06;;;9.50;100.00
23363;BME280;11853;48.080;11.960;2022-09-30T05:33:34;94075.00;;;9.51;100.00
23363;BME280;11853;48.080;11.960;2022-09-30T05:36:07;94077.97;;;9.56;100.00
23363;BME280;11853;48.080;11.960;2022-09-30T05:38:34;94074.50;;;9.56;100.00
23363;BME280;11853;48.080;11.960;2022-09-30T05:41:07;94076.81;;;9.59;100.00
23363;BME280;11853;48.080;11.960;2022-09-30T05:43:40;94071.69;;;9.57;100.00
23363;BME280;11853;48.080;11.960;2022-09-30T05:46:06;94079.28;;;9.60;100.00
23363;BME280;11853;48.080;11.960;2022-09-30T05:48:32;94082.63;;;9.62;100.00
23363;BME280;11853;48.080;11.960;2022-09-30T05:50:59;94087.09;;;9.62;100.00
23363;BME280;11853;48.080;11.960;2022-09-30T05:53:27;94094.19;;;9.61;100.00
23363;BME280;11853;48.080;11.960;2022-09-30T05:55:57;94094.03;;;9.63;100.00
23363;BME280;11853;48.080;11.960;2022-09-30T05:58:22;94094.84;;;9.63;100.00
23363;BME280;11853;48.080;11.960;2022-09-30T06:00:49;94099.31;;;9.63;100.00
23363;BME280;11853;48.080;11.960;2022-09-30T06:03:16;94109.75;;;9.64;100.00
23363;BME280;11853;48.080;11.960;2022-09-30T06:05:42;94110.06;;;9.69;100.00
23363;BME280;11853;48.080;11.960;2022-09-30T06:08:10;94124.66;;;9.74;100.00
23363;BME280;11853;48.080;11.960;2022-09-30T06:10:42;94116.19;;;9.78;100.00
23363;BME280;11853;48.080;11.960;2022-09-30T06:13:08;94121.00;;;9.83;100.00
23363;BME280;11853;48.080;11.960;2022-09-30T06:15:34;94122.84;;;9.90;100.00
23363;BME280;11853;48.080;11.960;2022-09-30T06:18:04;94120.34;;;9.89;100.00
23363;BME280;11853;48.080;11.960;2022-09-30T06:20:30;94122.31;;;9.87;100.00
23363;BME280;11853;48.080;11.960;2022-09-30T06:23:00;94126.63;;;9.96;100.00
23363;BME280;11853;48.080;11.960;2022-09-30T06:25:27;94132.28;;;9.93;100.00
23363;BME280;11853;48.080;11.960;2022-09-30T06:27:53;94129.09;;;9.98;100.00
23363;BME280;11853;48.080;11.960;2022-09-30T06:30:18;94131.59;;;9.91;100.00
23363;BME280;11853;48.080;11.960;2022-09-30T06:32:44;94128.28;;;9.97;100.00
23363;BME280;11853;48.080;11.960;2022-09-30T06:35:10;94132.91;;;10.03;100.00
23363;BME280;11853;48.080;11.960;2022-09-30T06:37:36;94140.53;;;9.90;100.00
23363;BME280;11853;48.080;11.960;2022-09-30T06:40:06;94143.03;;;9.83;100.00
23363;BME280;11853;48.080;11.960;2022-09-30T06:42:32;94144.50;;;9.86;100.00
23363;BME280;11853;48.080;11.960;2022-09-30T06:44:58;94143.19;;;9.90;100.00
23363;BME280;11853;48.080;11.960;2022-09-30T06:47:24;94142.88;;;9.93;100.00
23363;BME280;11853;48.080;11.960;2022-09-30T06:49:50;94140.03;;;9.95;100.00
23363;BME280;11853;48.080;11.960;2022-09-30T06:52:18;94139.22;;;10.10;100.00
23363;BME280;11853;48.080;11.960;2022-09-30T06:54:44;94138.41;;;10.82;100.00
23363;BME280;11853;48.080;11.960;2022-09-30T06:57:12;94139.88;;;11.16;100.00
23363;BME280;11853;48.080;11.960;2022-09-30T06:59:37;94131.88;;;11.24;100.00
23363;BME280;11853;48.080;11.960;2022-09-30T07:02:03;94144.88;;;11.19;100.00
23363;BME280;11853;48.080;11.960;2022-09-30T07:04:32;94149.72;;;11.38;100.00
23363;BME280;11853;48.080;11.960;2022-09-30T07:06:58;94147.94;;;11.85;100.00
23363;BME280;11853;48.080;11.960;2022-09-30T07:09:24;94146.97;;;12.38;100.00
23363;BME280;11853;48.080;11.960;2022-09-30T07:11:53;94149.97;;;12.88;100.00
23363;BME280;11853;48.080;11.960;2022-09-30T07:14:18;94153.41;;;13.48;98.96
23363;BME280;11853;48.080;11.960;2022-09-30T07:16:49;94153.25;;;13.92;98.18
23363;BME280;11853;48.080;11.960;2022-09-30T07:19:17;94160.72;;;14.25;91.77
23363;BME280;11853;48.080;11.960;2022-09-30T07:21:48;94164.13;;;14.40;91.66
23363;BME280;11853;48.080;11.960;2022-09-30T07:24:15;94172.97;;;14.62;93.78
23363;BME280;11853;48.080;11.960;2022-09-30T07:26:41;94164.34;;;14.67;90.11
23363;BME280;11853;48.080;11.960;2022-09-30T07:32:05;94173.16;;;13.75;93.52
23363;BME280;11853;48.080;11.960;2022-09-30T07:34:34;94172.69;;;13.50;95.55
23363;BME280;11853;48.080;11.960;2022-09-30T07:37:02;94171.06;;;13.19;96.89
23363;BME280;11853;48.080;11.960;2022-09-30T07:39:39;94163.91;;;13.05;96.82
23363;BME280;11853;48.080;11.960;2022-09-30T07:42:09;94167.94;;;13.01;99.42
23363;BME280;11853;48.080;11.960;2022-09-30T07:44:39;94171.19;;;12.96;97.98
23363;BME280;11853;48.080;11.960;2022-09-30T07:47:09;94161.16;;;12.83;97.19
23363;BME280;11853;48.080;11.960;2022-09-30T07:49:37;94165.81;;;12.81;99.01
23363;BME280;11853;48.080;11.960;2022-09-30T07:52:03;94166.47;;;12.83;99.78
23363;BME280;11853;48.080;11.960;2022-09-30T07:54:31;94169.34;;;12.82;99.47
23363;BME280;11853;48.080;11.960;2022-09-30T07:56:59;94172.09;;;12.89;100.00
23363;BME280;11853;48.080;11.960;2022-09-30T07:59:27;94166.94;;;12.87;99.79
23363;BME280;11853;48.080;11.960;2022-09-30T08:01:53;94168.22;;;12.91;99.18
23363;BME280;11853;48.080;11.960;2022-09-30T08:04:21;94176.66;;;13.10;99.82
23363;BME280;11853;48.080;11.960;2022-09-30T08:06:50;94176.91;;;13.44;100.00
23363;BME280;11853;48.080;11.960;2022-09-30T08:09:18;94176.41;;;13.92;100.00
23363;BME280;11853;48.080;11.960;2022-09-30T08:11:45;94179.66;;;14.09;100.00
23363;BME280;11853;48.080;11.960;2022-09-30T08:14:19;94185.16;;;14.07;98.06
23363;BME280;11853;48.080;11.960;2022-09-30T08:16:45;94189.88;;;13.84;93.50
23363;BME280;11853;48.080;11.960;2022-09-30T08:19:16;94193.97;;;13.65;95.90
23363;BME280;11853;48.080;11.960;2022-09-30T08:21:43;94201.72;;;13.60;96.87
23363;BME280;11853;48.080;11.960;2022-09-30T08:24:09;94198.06;;;14.04;99.74
23363;BME280;11853;48.080;11.960;2022-09-30T08:26:36;94196.50;;;14.52;97.14
23363;BME280;11853;48.080;11.960;2022-09-30T08:29:02;94196.81;;;14.71;92.06
23363;BME280;11853;48.080;11.960;2022-09-30T08:31:28;94208.78;;;14.75;92.60
23363;BME280;11853;48.080;11.960;2022-09-30T08:33:54;94210.00;;;15.00;93.38
23363;BME280;11853;48.080;11.960;2022-09-30T08:36:22;94212.41;;;15.30;92.16
23363;BME280;11853;48.080;11.960;2022-09-30T08:38:49;94205.13;;;15.52;93.06
23363;BME280;11853;48.080;11.960;2022-09-30T08:46:46;94218.72;;;15.57;81.51
23363;BME280;11853;48.080;11.960;2022-09-30T08:51:59;94219.88;;;15.41;86.65
23363;BME280;11853;48.080;11.960;2022-09-30T08:54:30;94218.56;;;15.24;84.60
23363;BME280;11853;48.080;11.960;2022-09-30T08:56:59;94225.94;;;15.22;84.06
23363;BME280;11853;48.080;11.960;2022-09-30T08:59:31;94222.28;;;15.29;82.13
23363;BME280;11853;48.080;11.960;2022-09-30T09:02:33;94227.00;;;15.27;83.42
23363;BME280;11853;48.080;11.960;2022-09-30T09:05:05;94235.28;;;15.04;83.49
23363;BME280;11853;48.080;11.960;2022-09-30T09:10:29;94249.53;;;14.62;84.96
23363;BME280;11853;48.080;11.960;2022-09-30T09:13:18;94260.06;;;14.27;87.38
23363;BME280;11853;48.080;11.960;2022-09-30T09:16:11;94270.34;;;14.09;88.11
23363;BME280;11853;48.080;11.960;2022-09-30T09:23:52;94263.78;;;13.90;90.91
23363;BME280;11853;48.080;11.960;2022-09-30T09:26:21;94271.44;;;13.78;90.30
23363;BME280;11853;48.080;11.960;2022-09-30T09:29:31;94265.47;;;13.61;91.14
23363;BME280;11853;48.080;11.960;2022-09-30T09:31:53;94267.53;;;13.59;93.05
23363;BME280;11853;48.080;11.960;2022-09-30T09:34:22;94266.31;;;13.62;92.97
23363;BME280;11853;48.080;11.960;2022-09-30T09:39:56;94268.25;;;13.38;93.05
23363;BME280;11853;48.080;11.960;2022-09-30T09:42:56;94274.97;;;13.34;93.64
23363;BME280;11853;48.080;11.960;2022-09-30T09:45:37;94277.34;;;13.29;93.93
23363;BME280;11853;48.080;11.960;2022-09-30T09:48:09;94282.56;;;13.22;95.00
23363;BME280;11853;48.080;11.960;2022-09-30T09:51:02;94270.31;;;13.13;96.50
23363;BME280;11853;48.080;11.960;2022-09-30T09:56:18;94273.72;;;13.07;98.49
23363;BME280;11853;48.080;11.960;2022-09-30T09:59:09;94266.47;;;13.01;98.92
23363;BME280;11853;48.080;11.960;2022-09-30T10:01:44;94278.13;;;13.00;99.27
23363;BME280;11853;48.080;11.960;2022-09-30T10:09:24;94267.47;;;13.00;99.74
23363;BME280;11853;48.080;11.960;2022-09-30T10:11:56;94264.50;;;13.33;99.59
23363;BME280;11853;48.080;11.960;2022-09-30T10:17:21;94261.09;;;14.26;91.95
23363;BME280;11853;48.080;11.960;2022-09-30T10:19:58;94256.69;;;14.18;95.07
23363;BME280;11853;48.080;11.960;2022-09-30T10:22:30;94267.13;;;14.35;92.12
23363;BME280;11853;48.080;11.960;2022-09-30T10:25:17;94271.44;;;14.14;91.26
23363;BME280;11853;48.080;11.960;2022-09-30T10:27:53;94265.56;;;14.40;92.92
23363;BME280;11853;48.080;11.960;2022-09-30T10:30:36;94259.69;;;14.73;86.24
23363;BME280;11853;48.080;11.960;2022-09-30T10:33:17;94259.78;;;14.80;89.55
23363;BME280;11853;48.080;11.960;2022-09-30T10:38:19;94271.28;;;14.80;88.93
23363;BME280;11853;48.080;11.960;2022-09-30T10:40:48;94265.13;;;14.80;87.13
23363;BME280;11853;48.080;11.960;2022-09-30T10:43:43;94266.09;;;15.00;84.10
23363;BME280;11853;48.080;11.960;2022-09-30T10:46:31;94274.00;;;14.87;84.82
23363;BME280;11853;48.080;11.960;2022-09-30T10:48:58;94272.34;;;14.86;84.26
23363;BME280;11853;48.080;11.960;2022-09-30T10:51:31;94276.41;;;14.82;87.78
23363;BME280;11853;48.080;11.960;2022-09-30T10:53:58;94277.16;;;14.97;88.29
23363;BME280;11853;48.080;11.960;2022-09-30T10:56:36;94306.34;;;14.99;86.29
23363;BME280;11853;48.080;11.960;2022-09-30T10:59:03;94302.22;;;14.96;83.90
23363;BME280;11853;48.080;11.960;2022-09-30T11:01:42;94309.22;;;14.76;84.76
23363;BME280;11853;48.080;11.960;2022-09-30T11:06:39;94310.09;;;14.40;85.23
23363;BME280;11853;48.080;11.960;2022-09-30T11:09:13;94308.91;;;14.28;87.46
23363;BME280;11853;48.080;11.960;2022-09-30T11:11:50;94315.41;;;14.18;85.64
23363;BME280;11853;48.080;11.960;2022-09-30T11:14:43;94315.91;;;13.92;87.02
23363;BME280;11853;48.080;11.960;2022-09-30T11:17:31;94326.41;;;13.94;87.63
23363;BME280;11853;48.080;11.960;2022-09-30T11:25:58;94313.16;;;14.01;90.33
23363;BME280;11853;48.080;11.960;2022-09-30T11:28:48;94314.34;;;13.98;91.05
23363;BME280;11853;48.080;11.960;2022-09-30T11:42:55;94304.53;;;13.69;89.72
23363;BME280;11853;48.080;11.960;2022-09-30T11:51:31;94313.66;;;13.74;89.54
23363;BME280;11853;48.080;11.960;2022-09-30T11:59:18;94309.31;;;13.59;91.24
23363;BME280;11853;48.080;11.960;2022-09-30T12:01:49;94312.72;;;13.67;91.46
23363;BME280;11853;48.080;11.960;2022-09-30T12:04:21;94317.94;;;13.75;91.63
23363;BME280;11853;48.080;11.960;2022-09-30T12:09:30;94310.88;;;13.83;89.11
23363;BME280;11853;48.080;11.960;2022-09-30T12:12:01;94307.19;;;13.84;89.66
23363;BME280;11853;48.080;11.960;2022-09-30T12:14:35;94318.22;;;13.81;89.10
23363;BME280;11853;48.080;11.960;2022-09-30T12:17:05;94312.00;;;13.73;90.38
23363;BME280;11853;48.080;11.960;2022-09-30T12:19:37;94311.16;;;13.73;91.81
23363;BME280;11853;48.080;11.960;2022-09-30T12:24:35;94328.00;;;13.73;90.81
23363;BME280;11853;48.080;11.960;2022-09-30T12:27:03;94335.88;;;13.82;89.79
23363;BME280;11853;48.080;11.960;2022-09-30T12:29:39;94335.34;;;13.71;90.26
23363;BME280;11853;48.080;11.960;2022-09-30T12:40:31;94335.44;;;13.63;91.88
23363;BME280;11853;48.080;11.960;2022-09-30T12:43:37;94337.91;;;13.50;93.39
23363;BME280;11853;48.080;11.960;2022-09-30T12:48:47;94336.25;;;13.49;92.90
23363;BME280;11853;48.080;11.960;2022-09-30T12:51:24;94343.88;;;13.52;91.98
23363;BME280;11853;48.080;11.960;2022-09-30T12:53:55;94330.28;;;13.47;92.76
23363;BME280;11853;48.080;11.960;2022-09-30T12:56:23;94336.78;;;13.29;93.66
23363;BME280;11853;48.080;11.960;2022-09-30T12:58:51;94336.78;;;13.29;95.77
23363;BME280;11853;48.080;11.960;2022-09-30T13:01:26;94333.47;;;13.27;96.23
23363;BME280;11853;48.080;11.960;2022-09-30T13:06:26;94325.97;;;13.31;97.09
23363;BME280;11853;48.080;11.960;2022-09-30T13:27:34;94320.00;;;13.73;95.34
23363;BME280;11853;48.080;11.960;2022-09-30T13:35:47;94315.75;;;13.64;94.98
23363;BME280;11853;48.080;11.960;2022-09-30T13:41:19;94303.34;;;13.71;95.56
23363;BME280;11853;48.080;11.960;2022-09-30T13:44:03;94302.78;;;13.76;94.65
23363;BME280;11853;48.080;11.960;2022-09-30T13:46:34;94309.78;;;13.77;95.82
23363;BME280;11853;48.080;11.960;2022-09-30T13:49:20;94313.28;;;13.78;95.53
23363;BME280;11853;48.080;11.960;2022-09-30T13:51:48;94305.53;;;13.83;92.17
23363;BME280;11853;48.080;11.960;2022-09-30T13:54:35;94307.94;;;13.78;91.26
23363;BME280;11853;48.080;11.960;2022-09-30T13:57:05;94312.00;;;13.73;93.38
23363;BME280;11853;48.080;11.960;2022-09-30T14:13:32;94330.19;;;13.55;93.41
23363;BME280;11853;48.080;11.960;2022-09-30T14:24:38;94359.59;;;13.62;89.69
23363;BME280;11853;48.080;11.960;2022-09-30T14:32:48;94355.66;;;13.43;91.51
23363;BME280;11853;48.080;11.960;2022-09-30T14:35:19;94343.06;;;13.37;89.61
23363;BME280;11853;48.080;11.960;2022-09-30T14:37:59;94338.47;;;13.45;90.34
23363;BME280;11853;48.080;11.960;2022-09-30T14:40:32;94329.44;;;13.32;91.19
23363;BME280;11853;48.080;11.960;2022-09-30T14:43:01;94334.78;;;13.32;91.66
23363;BME280;11853;48.080;11.960;2022-09-30T14:45:33;94335.69;;;13.39;92.24
23363;BME280;11853;48.080;11.960;2022-09-30T14:48:15;94337.38;;;13.40;92.66
23363;BME280;11853;48.080;11.960;2022-09-30T14:50:47;94343.88;;;13.37;92.82
23363;BME280;11853;48.080;11.960;2022-09-30T14:53:24;94336.63;;;13.31;92.99
23363;BME280;11853;48.080;11.960;2022-09-30T14:55:51;94339.75;;;13.35;91.88
23363;BME280;11853;48.080;11.960;2022-09-30T14:58:21;94329.81;;;13.28;93.07
23363;BME280;11853;48.080;11.960;2022-09-30T15:00:55;94331.13;;;13.24;94.22
23363;BME280;11853;48.080;11.960;2022-09-30T15:03:23;94340.63;;;13.27;94.94
23363;BME280;11853;48.080;11.960;2022-09-30T15:05:49;94350.66;;;13.25;94.03
23363;BME280;11853;48.080;11.960;2022-09-30T15:08:20;94346.16;;;13.25;93.80
23363;BME280;11853;48.080;11.960;2022-09-30T15:10:53;94351.59;;;13.32;94.50
23363;BME280;11853;48.080;11.960;2022-09-30T15:13:28;94343.44;;;13.34;95.39
23363;BME280;11853;48.080;11.960;2022-09-30T15:15:56;94359.03;;;13.37;93.59
23363;BME280;11853;48.080;11.960;2022-09-30T15:18:32;94354.16;;;13.40;94.14
23363;BME280;11853;48.080;11.960;2022-09-30T15:21:13;94363.53;;;13.36;95.12
23363;BME280;11853;48.080;11.960;2022-09-30T15:23:47;94363.63;;;13.43;95.78
23363;BME280;11853;48.080;11.960;2022-09-30T15:26:18;94359.22;;;13.50;94.60
23363;BME280;11853;48.080;11.960;2022-09-30T15:28:45;94350.97;;;13.45;96.35
23363;BME280;11853;48.080;11.960;2022-09-30T15:33:44;94340.84;;;13.55;95.47
23363;BME280;11853;48.080;11.960;2022-09-30T15:36:15;94346.47;;;13.60;95.01
23363;BME280;11853;48.080;11.960;2022-09-30T15:38:47;94352.25;;;13.49;95.05
23363;BME280;11853;48.080;11.960;2022-09-30T15:41:15;94348.03;;;13.40;96.87
23363;BME280;11853;48.080;11.960;2022-09-30T15:43:45;94352.41;;;13.47;93.68
23363;BME280;11853;48.080;11.960;2022-09-30T15:46:39;94361.63;;;13.45;94.79
23363;BME280;11853;48.080;11.960;2022-09-30T15:52:26;94356.09;;;13.32;95.48
23363;BME280;11853;48.080;11.960;2022-09-30T15:54:55;94365.94;;;13.31;96.96
23363;BME280;11853;48.080;11.960;2022-09-30T15:57:48;94359.88;;;13.37;95.89
23363;BME280;11853;48.080;11.960;2022-09-30T16:00:36;94364.94;;;13.24;97.79
23363;BME280;11853;48.080;11.960;2022-09-30T16:03:23;94375.28;;;13.27;98.28
23363;BME280;11853;48.080;11.960;2022-09-30T16:05:49;94381.91;;;13.31;98.02
23363;BME280;11853;48.080;11.960;2022-09-30T16:08:25;94379.09;;;13.24;98.54
23363;BME280;11853;48.080;11.960;2022-09-30T16:10:57;94383.78;;;13.22;96.01
23363;BME280;11853;48.080;11.960;2022-09-30T16:13:28;94392.69;;;13.15;97.38
23363;BME280;11853;48.080;11.960;2022-09-30T16:15:56;94387.59;;;13.05;98.24
23363;BME280;11853;48.080;11.960;2022-09-30T16:18:28;94401.44;;;13.00;98.80
23363;BME280;11853;48.080;11.960;2022-09-30T16:21:01;94403.09;;;13.01;98.96
23363;BME280;11853;48.080;11.960;2022-09-30T16:23:39;94407.06;;;13.05;99.07
23363;BME280;11853;48.080;11.960;2022-09-30T16:26:22;94412.50;;;13.12;100.00
23363;BME280;11853;48.080;11.960;2022-09-30T16:28:55;94400.84;;;13.13;100.00
23363;BME280;11853;48.080;11.960;2022-09-30T16:31:22;94402.50;;;13.14;100.00
23363;BME280;11853;48.080;11.960;2022-09-30T16:33:48;94406.00;;;13.15;100.00
23363;BME280;11853;48.080;11.960;2022-09-30T16:36:17;94407.00;;;13.14;100.00
23363;BME280;11853;48.080;11.960;2022-09-30T16:38:43;94413.16;;;13.14;100.00
23363;BME280;11853;48.080;11.960;2022-09-30T16:41:11;94411.84;;;13.10;100.00